This London Heathrow Airport weather forecast is generated by the Met Office Weather Widget

AirNav RadarBox - Metar Weather
  London Heathrow Metar Weather
 

METAR = EGLL 210650Z VRB02KT 4800 HZ NSC 08/07 Q1006

STATION........ EGLL
OBSERVED....... Mon Apr 21, 07:50 BST
NOW............ Mon Apr 21, 08:05 BST
AGE............ 15 min ago
WIND........... varies at 2 mph
VISIBILITY..... 8 miles
CONDITIONS..... haze

Mon Apr 21 2014, sunrise time : 04:56
Mon Apr 21 2014, sunset time : 19:04